sensor_id;sensor_type;location;lat;lon;timestamp;temperature;humidity
75262;DHT22;63859;51.064;4.580;2024-02-28T00:01:51;4.90;99.90
75262;DHT22;63859;51.064;4.580;2024-02-28T00:04:17;4.90;99.90
75262;DHT22;63859;51.064;4.580;2024-02-28T00:09:11;4.80;99.90
75262;DHT22;63859;51.064;4.580;2024-02-28T00:11:43;4.80;99.90
75262;DHT22;63859;51.064;4.580;2024-02-28T00:14:09;4.80;99.90
75262;DHT22;63859;51.064;4.580;2024-02-28T00:16:36;4.70;99.90
75262;DHT22;63859;51.064;4.580;2024-02-28T00:19:01;4.70;99.90
75262;DHT22;63859;51.064;4.580;2024-02-28T00:21:27;4.60;99.90
75262;DHT22;63859;51.064;4.580;2024-02-28T00:23:53;4.60;99.90
75262;DHT22;63859;51.064;4.580;2024-02-28T00:26:18;4.60;99.90
75262;DHT22;63859;51.064;4.580;2024-02-28T00:28:44;4.60;99.90
75262;DHT22;63859;51.064;4.580;2024-02-28T00:31:10;4.60;99.90
75262;DHT22;63859;51.064;4.580;2024-02-28T00:33:35;4.60;99.90
75262;DHT22;63859;51.064;4.580;2024-02-28T00:36:01;4.60;99.90
75262;DHT22;63859;51.064;4.580;2024-02-28T00:38:27;4.50;99.90
75262;DHT22;63859;51.064;4.580;2024-02-28T00:40:53;4.50;99.90
75262;DHT22;63859;51.064;4.580;2024-02-28T00:43:18;4.50;99.90
75262;DHT22;63859;51.064;4.580;2024-02-28T00:45:44;4.40;99.90
75262;DHT22;63859;51.064;4.580;2024-02-28T00:48:10;4.40;99.90
75262;DHT22;63859;51.064;4.580;2024-02-28T00:50:35;4.40;99.90
75262;DHT22;63859;51.064;4.580;2024-02-28T00:53:01;4.30;99.90
75262;DHT22;63859;51.064;4.580;2024-02-28T00:55:27;4.30;99.90
75262;DHT22;63859;51.064;4.580;2024-02-28T00:57:53;4.30;99.90
75262;DHT22;63859;51.064;4.580;2024-02-28T01:00:18;4.30;99.90
75262;DHT22;63859;51.064;4.580;2024-02-28T01:02:44;4.30;99.90
75262;DHT22;63859;51.064;4.580;2024-02-28T01:05:10;4.30;99.90
75262;DHT22;63859;51.064;4.580;2024-02-28T01:07:35;4.20;99.90
75262;DHT22;63859;51.064;4.580;2024-02-28T01:10:02;4.20;99.90
75262;DHT22;63859;51.064;4.580;2024-02-28T01:12:28;4.20;99.90
75262;DHT22;63859;51.064;4.580;2024-02-28T01:14:53;4.20;99.90
75262;DHT22;63859;51.064;4.580;2024-02-28T01:17:19;4.10;99.90
75262;DHT22;63859;51.064;4.580;2024-02-28T01:19:45;4.10;99.90
75262;DHT22;63859;51.064;4.580;2024-02-28T01:22:10;4.10;99.90
75262;DHT22;63859;51.064;4.580;2024-02-28T01:24:36;4.10;99.90
75262;DHT22;63859;51.064;4.580;2024-02-28T01:27:02;4.00;99.90
75262;DHT22;63859;51.064;4.580;2024-02-28T01:29:28;4.00;99.90
75262;DHT22;63859;51.064;4.580;2024-02-28T01:31:55;3.90;99.90
75262;DHT22;63859;51.064;4.580;2024-02-28T01:34:21;4.00;99.90
75262;DHT22;63859;51.064;4.580;2024-02-28T01:36:47;3.90;99.90
75262;DHT22;63859;51.064;4.580;2024-02-28T01:39:13;3.90;99.90
75262;DHT22;63859;51.064;4.580;2024-02-28T01:41:38;3.90;99.90
75262;DHT22;63859;51.064;4.580;2024-02-28T01:44:04;3.90;99.90
75262;DHT22;63859;51.064;4.580;2024-02-28T01:46:30;3.80;99.90
75262;DHT22;63859;51.064;4.580;2024-02-28T01:48:56;3.80;99.90
75262;DHT22;63859;51.064;4.580;2024-02-28T01:51:24;3.80;99.90
75262;DHT22;63859;51.064;4.580;2024-02-28T01:53:52;3.70;99.90
75262;DHT22;63859;51.064;4.580;2024-02-28T01:58:49;3.70;99.90
75262;DHT22;63859;51.064;4.580;2024-02-28T02:03:43;3.70;99.90
75262;DHT22;63859;51.064;4.580;2024-02-28T02:06:10;3.70;99.90
75262;DHT22;63859;51.064;4.580;2024-02-28T02:08:37;3.70;99.90
75262;DHT22;63859;51.064;4.580;2024-02-28T02:11:04;3.60;99.90
75262;DHT22;63859;51.064;4.580;2024-02-28T02:13:30;3.60;99.90
75262;DHT22;63859;51.064;4.580;2024-02-28T02:15:55;3.60;99.90
75262;DHT22;63859;51.064;4.580;2024-02-28T02:18:21;3.60;99.90
75262;DHT22;63859;51.064;4.580;2024-02-28T02:20:52;3.60;99.90
75262;DHT22;63859;51.064;4.580;2024-02-28T02:23:19;3.60;99.90
75262;DHT22;63859;51.064;4.580;2024-02-28T02:25:46;3.50;99.90
75262;DHT22;63859;51.064;4.580;2024-02-28T02:28:12;3.50;99.90
75262;DHT22;63859;51.064;4.580;2024-02-28T02:30:39;3.50;99.90
75262;DHT22;63859;51.064;4.580;2024-02-28T02:33:05;3.50;99.90
75262;DHT22;63859;51.064;4.580;2024-02-28T02:35:31;3.50;99.90
75262;DHT22;63859;51.064;4.580;2024-02-28T02:37:56;3.50;99.90
75262;DHT22;63859;51.064;4.580;2024-02-28T02:40:22;3.50;99.90
75262;DHT22;63859;51.064;4.580;2024-02-28T02:42:48;3.60;99.90
75262;DHT22;63859;51.064;4.580;2024-02-28T02:45:14;3.60;99.90
75262;DHT22;63859;51.064;4.580;2024-02-28T02:47:39;3.60;99.90
75262;DHT22;63859;51.064;4.580;2024-02-28T02:50:05;3.50;99.90
75262;DHT22;63859;51.064;4.580;2024-02-28T02:52:32;3.50;99.90
75262;DHT22;63859;51.064;4.580;2024-02-28T02:57:23;3.50;99.90
75262;DHT22;63859;51.064;4.580;2024-02-28T02:59:49;3.50;99.90
75262;DHT22;63859;51.064;4.580;2024-02-28T03:02:15;3.50;99.90
75262;DHT22;63859;51.064;4.580;2024-02-28T03:04:40;3.50;99.90
75262;DHT22;63859;51.064;4.580;2024-02-28T03:07:06;3.50;99.90
75262;DHT22;63859;51.064;4.580;2024-02-28T03:09:31;3.50;99.90
75262;DHT22;63859;51.064;4.580;2024-02-28T03:11:57;3.50;99.90
75262;DHT22;63859;51.064;4.580;2024-02-28T03:14:23;3.50;99.90
75262;DHT22;63859;51.064;4.580;2024-02-28T03:16:50;3.50;99.90
75262;DHT22;63859;51.064;4.580;2024-02-28T03:19:16;3.50;99.90
75262;DHT22;63859;51.064;4.580;2024-02-28T03:21:42;3.50;99.90
75262;DHT22;63859;51.064;4.580;2024-02-28T03:24:07;3.40;99.90
75262;DHT22;63859;51.064;4.580;2024-02-28T03:26:33;3.40;99.90
75262;DHT22;63859;51.064;4.580;2024-02-28T03:28:59;3.40;99.90
75262;DHT22;63859;51.064;4.580;2024-02-28T03:33:51;3.40;99.90
75262;DHT22;63859;51.064;4.580;2024-02-28T03:36:17;3.40;99.90
75262;DHT22;63859;51.064;4.580;2024-02-28T03:38:42;3.30;99.90
75262;DHT22;63859;51.064;4.580;2024-02-28T03:41:08;3.30;99.90
75262;DHT22;63859;51.064;4.580;2024-02-28T03:43:34;3.30;99.90
75262;DHT22;63859;51.064;4.580;2024-02-28T03:46:00;3.30;99.90
75262;DHT22;63859;51.064;4.580;2024-02-28T03:48:25;3.30;99.90
75262;DHT22;63859;51.064;4.580;2024-02-28T03:50:51;3.20;99.90
75262;DHT22;63859;51.064;4.580;2024-02-28T03:53:17;3.20;99.90
75262;DHT22;63859;51.064;4.580;2024-02-28T03:55:42;3.20;99.90
75262;DHT22;63859;51.064;4.580;2024-02-28T03:58:11;3.20;99.90
75262;DHT22;63859;51.064;4.580;2024-02-28T04:00:37;3.20;99.90
75262;DHT22;63859;51.064;4.580;2024-02-28T04:03:04;3.20;99.90
75262;DHT22;63859;51.064;4.580;2024-02-28T04:05:30;3.20;99.90
75262;DHT22;63859;51.064;4.580;2024-02-28T04:07:55;3.20;99.90
75262;DHT22;63859;51.064;4.580;2024-02-28T04:10:21;3.10;99.90
75262;DHT22;63859;51.064;4.580;2024-02-28T04:12:47;3.10;99.90
75262;DHT22;63859;51.064;4.580;2024-02-28T04:15:14;3.10;99.90
75262;DHT22;63859;51.064;4.580;2024-02-28T04:17:40;3.10;99.90
75262;DHT22;63859;51.064;4.580;2024-02-28T04:20:10;3.10;99.90
75262;DHT22;63859;51.064;4.580;2024-02-28T04:22:36;3.10;99.90
75262;DHT22;63859;51.064;4.580;2024-02-28T04:25:02;3.10;99.90
75262;DHT22;63859;51.064;4.580;2024-02-28T04:27:28;3.00;99.90
75262;DHT22;63859;51.064;4.580;2024-02-28T04:29:54;3.00;99.90
75262;DHT22;63859;51.064;4.580;2024-02-28T04:32:19;3.00;99.90
75262;DHT22;63859;51.064;4.580;2024-02-28T04:34:45;2.90;99.90
75262;DHT22;63859;51.064;4.580;2024-02-28T04:37:11;2.90;99.90
75262;DHT22;63859;51.064;4.580;2024-02-28T04:39:36;2.90;99.90
75262;DHT22;63859;51.064;4.580;2024-02-28T04:42:02;2.90;99.90
75262;DHT22;63859;51.064;4.580;2024-02-28T04:44:28;2.80;99.90
75262;DHT22;63859;51.064;4.580;2024-02-28T04:46:53;2.90;99.90
75262;DHT22;63859;51.064;4.580;2024-02-28T04:49:19;2.80;99.90
75262;DHT22;63859;51.064;4.580;2024-02-28T04:51:45;2.80;99.90
75262;DHT22;63859;51.064;4.580;2024-02-28T04:54:11;2.80;99.90
75262;DHT22;63859;51.064;4.580;2024-02-28T04:56:40;2.80;99.90
75262;DHT22;63859;51.064;4.580;2024-02-28T04:59:07;2.80;99.90
75262;DHT22;63859;51.064;4.580;2024-02-28T05:01:32;2.80;99.90
75262;DHT22;63859;51.064;4.580;2024-02-28T05:04:00;2.70;99.90
75262;DHT22;63859;51.064;4.580;2024-02-28T05:06:26;2.70;99.90
75262;DHT22;63859;51.064;4.580;2024-02-28T05:08:51;2.70;99.90
75262;DHT22;63859;51.064;4.580;2024-02-28T05:11:17;2.70;99.90
75262;DHT22;63859;51.064;4.580;2024-02-28T05:13:43;2.70;99.90
75262;DHT22;63859;51.064;4.580;2024-02-28T05:16:15;2.70;99.90
75262;DHT22;63859;51.064;4.580;2024-02-28T05:18:41;2.70;99.90
75262;DHT22;63859;51.064;4.580;2024-02-28T05:21:07;2.60;99.90
75262;DHT22;63859;51.064;4.580;2024-02-28T05:23:32;2.60;99.90
75262;DHT22;63859;51.064;4.580;2024-02-28T05:25:59;2.60;99.90
75262;DHT22;63859;51.064;4.580;2024-02-28T05:28:29;2.60;99.90
75262;DHT22;63859;51.064;4.580;2024-02-28T05:30:56;2.50;99.90
75262;DHT22;63859;51.064;4.580;2024-02-28T05:33:21;2.50;99.90
75262;DHT22;63859;51.064;4.580;2024-02-28T05:35:47;2.50;99.90
75262;DHT22;63859;51.064;4.580;2024-02-28T05:38:13;2.50;99.90
75262;DHT22;63859;51.064;4.580;2024-02-28T05:40:38;2.50;99.90
75262;DHT22;63859;51.064;4.580;2024-02-28T05:43:06;2.50;99.90
75262;DHT22;63859;51.064;4.580;2024-02-28T05:45:31;2.50;99.90
75262;DHT22;63859;51.064;4.580;2024-02-28T05:47:57;2.50;99.90
75262;DHT22;63859;51.064;4.580;2024-02-28T05:50:23;2.50;99.90
75262;DHT22;63859;51.064;4.580;2024-02-28T05:52:48;2.50;99.90
75262;DHT22;63859;51.064;4.580;2024-02-28T05:55:14;2.50;99.90
75262;DHT22;63859;51.064;4.580;2024-02-28T05:57:40;2.50;99.90
75262;DHT22;63859;51.064;4.580;2024-02-28T06:00:06;2.50;99.90
75262;DHT22;63859;51.064;4.580;2024-02-28T06:02:36;2.50;99.90
75262;DHT22;63859;51.064;4.580;2024-02-28T06:05:02;2.40;99.90
75262;DHT22;63859;51.064;4.580;2024-02-28T06:07:28;2.40;99.90
75262;DHT22;63859;51.064;4.580;2024-02-28T06:09:54;2.50;99.90
75262;DHT22;63859;51.064;4.580;2024-02-28T06:12:19;2.50;99.90
75262;DHT22;63859;51.064;4.580;2024-02-28T06:14:45;2.40;99.90
75262;DHT22;63859;51.064;4.580;2024-02-28T06:17:11;2.50;99.90
75262;DHT22;63859;51.064;4.580;2024-02-28T06:19:36;2.50;99.90
75262;DHT22;63859;51.064;4.580;2024-02-28T06:22:03;2.50;99.90
75262;DHT22;63859;51.064;4.580;2024-02-28T06:24:29;2.50;99.90
75262;DHT22;63859;51.064;4.580;2024-02-28T06:26:55;2.50;99.90
75262;DHT22;63859;51.064;4.580;2024-02-28T06:29:20;2.60;99.90
75262;DHT22;63859;51.064;4.580;2024-02-28T06:31:53;2.60;99.90
75262;DHT22;63859;51.064;4.580;2024-02-28T06:34:21;2.50;99.90
75262;DHT22;63859;51.064;4.580;2024-02-28T06:36:48;2.50;99.90
75262;DHT22;63859;51.064;4.580;2024-02-28T06:39:13;2.50;99.90
75262;DHT22;63859;51.064;4.580;2024-02-28T06:41:40;2.50;99.90
75262;DHT22;63859;51.064;4.580;2024-02-28T06:44:06;2.60;99.90
75262;DHT22;63859;51.064;4.580;2024-02-28T06:46:33;2.60;99.90
75262;DHT22;63859;51.064;4.580;2024-02-28T06:48:58;2.60;99.90
75262;DHT22;63859;51.064;4.580;2024-02-28T06:51:24;2.60;99.90
75262;DHT22;63859;51.064;4.580;2024-02-28T06:53:49;2.60;99.90
75262;DHT22;63859;51.064;4.580;2024-02-28T06:56:15;2.70;99.90
75262;DHT22;63859;51.064;4.580;2024-02-28T06:58:41;2.70;99.90
75262;DHT22;63859;51.064;4.580;2024-02-28T07:01:06;2.70;99.90
75262;DHT22;63859;51.064;4.580;2024-02-28T07:03:32;2.70;99.90
75262;DHT22;63859;51.064;4.580;2024-02-28T07:05:58;2.80;99.90
75262;DHT22;63859;51.064;4.580;2024-02-28T07:08:23;2.80;99.90
75262;DHT22;63859;51.064;4.580;2024-02-28T07:10:49;2.80;99.90
75262;DHT22;63859;51.064;4.580;2024-02-28T07:13:19;2.90;99.90
75262;DHT22;63859;51.064;4.580;2024-02-28T07:15:46;2.90;99.90
75262;DHT22;63859;51.064;4.580;2024-02-28T07:18:12;3.00;99.90
75262;DHT22;63859;51.064;4.580;2024-02-28T07:20:37;3.00;99.90
75262;DHT22;63859;51.064;4.580;2024-02-28T07:23:03;3.10;99.90
75262;DHT22;63859;51.064;4.580;2024-02-28T07:25:29;3.20;99.90
75262;DHT22;63859;51.064;4.580;2024-02-28T07:27:57;3.20;99.90
75262;DHT22;63859;51.064;4.580;2024-02-28T07:30:24;3.20;99.90
75262;DHT22;63859;51.064;4.580;2024-02-28T07:32:50;3.30;99.90
75262;DHT22;63859;51.064;4.580;2024-02-28T07:35:15;3.40;99.90
75262;DHT22;63859;51.064;4.580;2024-02-28T07:37:41;3.40;99.90
75262;DHT22;63859;51.064;4.580;2024-02-28T07:40:07;3.50;99.90
75262;DHT22;63859;51.064;4.580;2024-02-28T07:42:33;3.50;99.90
75262;DHT22;63859;51.064;4.580;2024-02-28T07:45:00;3.60;99.90
75262;DHT22;63859;51.064;4.580;2024-02-28T07:47:26;3.70;99.90
75262;DHT22;63859;51.064;4.580;2024-02-28T07:49:52;3.70;99.90
75262;DHT22;63859;51.064;4.580;2024-02-28T07:52:19;3.80;99.90
75262;DHT22;63859;51.064;4.580;2024-02-28T07:54:45;3.90;99.90
75262;DHT22;63859;51.064;4.580;2024-02-28T07:57:13;4.00;99.90
75262;DHT22;63859;51.064;4.580;2024-02-28T07:59:41;4.10;99.90
75262;DHT22;63859;51.064;4.580;2024-02-28T08:02:08;4.20;99.90
75262;DHT22;63859;51.064;4.580;2024-02-28T08:04:34;4.30;99.90
75262;DHT22;63859;51.064;4.580;2024-02-28T08:07:00;4.40;99.90
75262;DHT22;63859;51.064;4.580;2024-02-28T08:09:25;4.40;99.90
75262;DHT22;63859;51.064;4.580;2024-02-28T08:11:51;4.40;99.90
75262;DHT22;63859;51.064;4.580;2024-02-28T08:14:17;4.50;99.90
75262;DHT22;63859;51.064;4.580;2024-02-28T08:16:43;4.50;99.90
75262;DHT22;63859;51.064;4.580;2024-02-28T08:19:09;4.60;99.90
75262;DHT22;63859;51.064;4.580;2024-02-28T08:21:34;4.60;99.90
75262;DHT22;63859;51.064;4.580;2024-02-28T08:24:00;4.70;99.90
75262;DHT22;63859;51.064;4.580;2024-02-28T08:26:30;4.80;99.90
75262;DHT22;63859;51.064;4.580;2024-02-28T08:28:55;4.80;99.90
75262;DHT22;63859;51.064;4.580;2024-02-28T08:31:21;4.90;99.90
75262;DHT22;63859;51.064;4.580;2024-02-28T08:33:47;4.90;99.90
75262;DHT22;63859;51.064;4.580;2024-02-28T08:36:12;5.00;99.90
75262;DHT22;63859;51.064;4.580;2024-02-28T08:43:30;5.20;99.90
75262;DHT22;63859;51.064;4.580;2024-02-28T08:45:56;5.30;99.90
75262;DHT22;63859;51.064;4.580;2024-02-28T08:48:22;5.30;99.90
75262;DHT22;63859;51.064;4.580;2024-02-28T08:50:48;5.40;99.90
75262;DHT22;63859;51.064;4.580;2024-02-28T08:53:14;5.30;99.90
75262;DHT22;63859;51.064;4.580;2024-02-28T08:55:40;5.30;99.90
75262;DHT22;63859;51.064;4.580;2024-02-28T08:58:05;5.40;99.90
75262;DHT22;63859;51.064;4.580;2024-02-28T09:00:31;5.50;99.90
75262;DHT22;63859;51.064;4.580;2024-02-28T09:02:57;5.50;99.90
75262;DHT22;63859;51.064;4.580;2024-02-28T09:05:23;5.50;99.90
75262;DHT22;63859;51.064;4.580;2024-02-28T09:07:49;5.60;99.90
75262;DHT22;63859;51.064;4.580;2024-02-28T09:10:17;5.50;99.90
75262;DHT22;63859;51.064;4.580;2024-02-28T09:12:49;5.60;99.90
75262;DHT22;63859;51.064;4.580;2024-02-28T09:15:15;5.50;99.90
75262;DHT22;63859;51.064;4.580;2024-02-28T09:17:41;5.60;99.90
75262;DHT22;63859;51.064;4.580;2024-02-28T09:20:07;5.70;99.90
75262;DHT22;63859;51.064;4.580;2024-02-28T09:22:33;5.70;99.90
75262;DHT22;63859;51.064;4.580;2024-02-28T09:25:00;5.70;99.90
75262;DHT22;63859;51.064;4.580;2024-02-28T09:27:30;5.80;99.90
75262;DHT22;63859;51.064;4.580;2024-02-28T09:29:56;5.80;99.90
75262;DHT22;63859;51.064;4.580;2024-02-28T09:32:21;5.80;99.90
75262;DHT22;63859;51.064;4.580;2024-02-28T09:34:47;5.90;99.90
75262;DHT22;63859;51.064;4.580;2024-02-28T09:37:14;5.90;99.90
75262;DHT22;63859;51.064;4.580;2024-02-28T09:39:40;5.90;99.90
75262;DHT22;63859;51.064;4.580;2024-02-28T09:42:06;6.00;99.90
75262;DHT22;63859;51.064;4.580;2024-02-28T09:44:34;6.00;99.90
75262;DHT22;63859;51.064;4.580;2024-02-28T09:47:00;6.10;99.90
75262;DHT22;63859;51.064;4.580;2024-02-28T09:49:26;6.10;99.90
75262;DHT22;63859;51.064;4.580;2024-02-28T09:51:52;6.10;99.90
75262;DHT22;63859;51.064;4.580;2024-02-28T09:54:18;6.20;99.90
75262;DHT22;63859;51.064;4.580;2024-02-28T09:56:44;6.20;99.90
75262;DHT22;63859;51.064;4.580;2024-02-28T09:59:12;6.20;99.90
75262;DHT22;63859;51.064;4.580;2024-02-28T10:01:43;6.30;99.90
75262;DHT22;63859;51.064;4.580;2024-02-28T10:04:13;6.30;99.90
75262;DHT22;63859;51.064;4.580;2024-02-28T10:09:07;6.50;99.90
75262;DHT22;63859;51.064;4.580;2024-02-28T10:11:33;6.60;99.90
75262;DHT22;63859;51.064;4.580;2024-02-28T10:14:01;6.60;99.90
75262;DHT22;63859;51.064;4.580;2024-02-28T10:16:27;6.80;99.90
75262;DHT22;63859;51.064;4.580;2024-02-28T10:18:52;6.90;99.90
75262;DHT22;63859;51.064;4.580;2024-02-28T10:21:19;6.90;99.90
75262;DHT22;63859;51.064;4.580;2024-02-28T10:23:45;6.90;99.90
75262;DHT22;63859;51.064;4.580;2024-02-28T10:26:12;7.00;99.90
75262;DHT22;63859;51.064;4.580;2024-02-28T10:28:38;7.00;99.90
75262;DHT22;63859;51.064;4.580;2024-02-28T10:33:34;7.10;99.90
75262;DHT22;63859;51.064;4.580;2024-02-28T10:36:02;7.20;99.90
75262;DHT22;63859;51.064;4.580;2024-02-28T10:38:28;7.20;99.90
75262;DHT22;63859;51.064;4.580;2024-02-28T10:40:56;7.20;99.90
75262;DHT22;63859;51.064;4.580;2024-02-28T10:43:23;7.20;99.90
75262;DHT22;63859;51.064;4.580;2024-02-28T10:45:52;7.30;99.90
75262;DHT22;63859;51.064;4.580;2024-02-28T10:48:18;7.40;99.90
75262;DHT22;63859;51.064;4.580;2024-02-28T10:50:47;7.60;99.90
75262;DHT22;63859;51.064;4.580;2024-02-28T10:53:14;7.70;99.90
75262;DHT22;63859;51.064;4.580;2024-02-28T10:55:44;7.80;99.90
75262;DHT22;63859;51.064;4.580;2024-02-28T10:58:14;7.90;99.90
75262;DHT22;63859;51.064;4.580;2024-02-28T11:00:42;7.90;99.90
75262;DHT22;63859;51.064;4.580;2024-02-28T11:03:10;8.00;99.90
75262;DHT22;63859;51.064;4.580;2024-02-28T11:05:40;8.00;99.90
75262;DHT22;63859;51.064;4.580;2024-02-28T11:08:09;8.10;99.90
75262;DHT22;63859;51.064;4.580;2024-02-28T11:10:40;8.20;99.90
75262;DHT22;63859;51.064;4.580;2024-02-28T11:13:05;8.30;99.90
75262;DHT22;63859;51.064;4.580;2024-02-28T11:15:31;8.40;99.90
75262;DHT22;63859;51.064;4.580;2024-02-28T11:18:07;8.50;99.90
75262;DHT22;63859;51.064;4.580;2024-02-28T11:20:34;8.60;99.90
75262;DHT22;63859;51.064;4.580;2024-02-28T11:23:00;8.70;99.90
75262;DHT22;63859;51.064;4.580;2024-02-28T11:30:18;8.80;99.90
75262;DHT22;63859;51.064;4.580;2024-02-28T11:32:44;8.80;99.90
75262;DHT22;63859;51.064;4.580;2024-02-28T11:35:10;8.70;99.90
75262;DHT22;63859;51.064;4.580;2024-02-28T11:37:38;8.80;99.90
75262;DHT22;63859;51.064;4.580;2024-02-28T11:40:10;8.70;99.90
75262;DHT22;63859;51.064;4.580;2024-02-28T11:42:35;8.70;99.90
75262;DHT22;63859;51.064;4.580;2024-02-28T11:45:01;8.70;99.90
75262;DHT22;63859;51.064;4.580;2024-02-28T11:50:01;8.70;99.90
75262;DHT22;63859;51.064;4.580;2024-02-28T11:52:29;8.70;99.90
75262;DHT22;63859;51.064;4.580;2024-02-28T11:54:55;8.70;99.90
75262;DHT22;63859;51.064;4.580;2024-02-28T11:57:21;8.80;99.90
75262;DHT22;63859;51.064;4.580;2024-02-28T12:02:15;9.00;99.90
75262;DHT22;63859;51.064;4.580;2024-02-28T12:04:45;9.20;99.90
75262;DHT22;63859;51.064;4.580;2024-02-28T12:07:11;9.20;99.90
75262;DHT22;63859;51.064;4.580;2024-02-28T12:09:37;9.30;99.90
75262;DHT22;63859;51.064;4.580;2024-02-28T12:14:33;9.50;99.90
75262;DHT22;63859;51.064;4.580;2024-02-28T12:17:01;9.50;99.90
75262;DHT22;63859;51.064;4.580;2024-02-28T12:19:28;9.50;99.90
75262;DHT22;63859;51.064;4.580;2024-02-28T12:21:54;9.40;99.90
75262;DHT22;63859;51.064;4.580;2024-02-28T12:24:20;9.50;99.90
75262;DHT22;63859;51.064;4.580;2024-02-28T12:26:46;9.50;99.90
75262;DHT22;63859;51.064;4.580;2024-02-28T12:29:12;9.50;99.90
75262;DHT22;63859;51.064;4.580;2024-02-28T12:31:39;9.60;99.90
75262;DHT22;63859;51.064;4.580;2024-02-28T12:34:05;9.60;99.90
75262;DHT22;63859;51.064;4.580;2024-02-28T12:36:31;9.60;99.90
75262;DHT22;63859;51.064;4.580;2024-02-28T12:38:58;9.60;99.90
75262;DHT22;63859;51.064;4.580;2024-02-28T12:41:26;9.60;99.90
75262;DHT22;63859;51.064;4.580;2024-02-28T12:43:52;9.70;99.90
75262;DHT22;63859;51.064;4.580;2024-02-28T12:46:17;9.70;99.90
75262;DHT22;63859;51.064;4.580;2024-02-28T12:48:43;9.70;99.90
75262;DHT22;63859;51.064;4.580;2024-02-28T12:51:36;9.70;99.90
75262;DHT22;63859;51.064;4.580;2024-02-28T12:54:03;9.80;99.90
75262;DHT22;63859;51.064;4.580;2024-02-28T12:56:28;9.80;99.90
75262;DHT22;63859;51.064;4.580;2024-02-28T12:58:54;9.80;99.90
75262;DHT22;63859;51.064;4.580;2024-02-28T13:01:20;9.80;99.90
75262;DHT22;63859;51.064;4.580;2024-02-28T13:03:45;9.80;99.90
75262;DHT22;63859;51.064;4.580;2024-02-28T13:08:37;9.80;99.90
75262;DHT22;63859;51.064;4.580;2024-02-28T13:11:02;9.80;99.90
75262;DHT22;63859;51.064;4.580;2024-02-28T13:13:29;9.80;99.90
75262;DHT22;63859;51.064;4.580;2024-02-28T13:15:54;9.80;99.90
75262;DHT22;63859;51.064;4.580;2024-02-28T13:18:20;9.80;99.90
75262;DHT22;63859;51.064;4.580;2024-02-28T13:20:45;9.80;99.90
75262;DHT22;63859;51.064;4.580;2024-02-28T13:25:37;9.70;99.90
75262;DHT22;63859;51.064;4.580;2024-02-28T13:28:03;9.70;99.90
75262;DHT22;63859;51.064;4.580;2024-02-28T13:30:29;9.70;99.90
75262;DHT22;63859;51.064;4.580;2024-02-28T13:32:54;9.70;99.90
75262;DHT22;63859;51.064;4.580;2024-02-28T13:35:20;9.70;99.90
75262;DHT22;63859;51.064;4.580;2024-02-28T13:37:46;9.60;99.90
75262;DHT22;63859;51.064;4.580;2024-02-28T13:40:11;9.60;99.90
75262;DHT22;63859;51.064;4.580;2024-02-28T13:42:37;9.60;99.90
75262;DHT22;63859;51.064;4.580;2024-02-28T13:45:04;9.60;99.90
75262;DHT22;63859;51.064;4.580;2024-02-28T13:47:33;9.70;99.90
75262;DHT22;63859;51.064;4.580;2024-02-28T13:50:00;9.70;99.90
75262;DHT22;63859;51.064;4.580;2024-02-28T13:52:25;9.80;99.90
75262;DHT22;63859;51.064;4.580;2024-02-28T13:54:51;9.80;99.90
75262;DHT22;63859;51.064;4.580;2024-02-28T13:57:17;10.00;99.90
75262;DHT22;63859;51.064;4.580;2024-02-28T13:59:43;10.20;99.90
75262;DHT22;63859;51.064;4.580;2024-02-28T14:02:11;10.30;99.90
75262;DHT22;63859;51.064;4.580;2024-02-28T14:04:37;10.40;99.90
75262;DHT22;63859;51.064;4.580;2024-02-28T14:09:29;10.60;99.90
75262;DHT22;63859;51.064;4.580;2024-02-28T14:11:55;10.60;99.90
75262;DHT22;63859;51.064;4.580;2024-02-28T14:14:21;10.70;99.90
75262;DHT22;63859;51.064;4.580;2024-02-28T14:16:46;10.80;99.90
75262;DHT22;63859;51.064;4.580;2024-02-28T14:21:38;10.80;99.90
75262;DHT22;63859;51.064;4.580;2024-02-28T14:24:04;10.80;99.90
75262;DHT22;63859;51.064;4.580;2024-02-28T14:26:30;10.80;99.90
75262;DHT22;63859;51.064;4.580;2024-02-28T14:28:56;10.80;99.90
75262;DHT22;63859;51.064;4.580;2024-02-28T14:31:22;10.80;99.90
75262;DHT22;63859;51.064;4.580;2024-02-28T14:33:48;10.80;99.90
75262;DHT22;63859;51.064;4.580;2024-02-28T14:36:14;10.80;99.90
75262;DHT22;63859;51.064;4.580;2024-02-28T14:38:39;10.80;99.90
75262;DHT22;63859;51.064;4.580;2024-02-28T14:41:05;10.80;99.90
75262;DHT22;63859;51.064;4.580;2024-02-28T14:45:58;10.60;99.90
75262;DHT22;63859;51.064;4.580;2024-02-28T14:50:50;10.60;99.90
75262;DHT22;63859;51.064;4.580;2024-02-28T14:53:16;10.60;99.90
75262;DHT22;63859;51.064;4.580;2024-02-28T14:55:44;10.60;99.90
75262;DHT22;63859;51.064;4.580;2024-02-28T14:58:12;10.60;99.90
75262;DHT22;63859;51.064;4.580;2024-02-28T15:00:38;10.70;99.90
75262;DHT22;63859;51.064;4.580;2024-02-28T15:03:04;10.70;99.90
75262;DHT22;63859;51.064;4.580;2024-02-28T15:05:30;10.80;99.90
75262;DHT22;63859;51.064;4.580;2024-02-28T15:07:55;10.80;99.90
75262;DHT22;63859;51.064;4.580;2024-02-28T15:10:21;10.70;99.90
75262;DHT22;63859;51.064;4.580;2024-02-28T15:12:47;10.70;99.90
75262;DHT22;63859;51.064;4.580;2024-02-28T15:15:12;10.70;99.90
75262;DHT22;63859;51.064;4.580;2024-02-28T15:20:06;10.70;99.90
75262;DHT22;63859;51.064;4.580;2024-02-28T15:22:33;10.70;99.90
75262;DHT22;63859;51.064;4.580;2024-02-28T15:24:59;10.70;99.90
75262;DHT22;63859;51.064;4.580;2024-02-28T15:27:25;10.70;99.90
75262;DHT22;63859;51.064;4.580;2024-02-28T15:29:51;10.70;99.90
75262;DHT22;63859;51.064;4.580;2024-02-28T15:32:17;10.70;99.90
75262;DHT22;63859;51.064;4.580;2024-02-28T15:34:42;10.70;99.90
75262;DHT22;63859;51.064;4.580;2024-02-28T15:39:34;10.70;99.90
75262;DHT22;63859;51.064;4.580;2024-02-28T15:42:01;10.60;99.90
75262;DHT22;63859;51.064;4.580;2024-02-28T15:44:26;10.50;99.90
75262;DHT22;63859;51.064;4.580;2024-02-28T15:46:52;10.60;99.90
75262;DHT22;63859;51.064;4.580;2024-02-28T15:49:18;10.60;99.90
75262;DHT22;63859;51.064;4.580;2024-02-28T15:51:44;10.50;99.90
75262;DHT22;63859;51.064;4.580;2024-02-28T15:54:10;10.40;99.90
75262;DHT22;63859;51.064;4.580;2024-02-28T15:56:36;10.40;99.90
75262;DHT22;63859;51.064;4.580;2024-02-28T15:59:03;10.30;99.90
75262;DHT22;63859;51.064;4.580;2024-02-28T16:01:30;10.30;99.90
75262;DHT22;63859;51.064;4.580;2024-02-28T16:03:56;10.20;99.90
75262;DHT22;63859;51.064;4.580;2024-02-28T16:06:22;10.20;99.90
75262;DHT22;63859;51.064;4.580;2024-02-28T16:08:49;10.20;99.90
75262;DHT22;63859;51.064;4.580;2024-02-28T16:11:15;10.10;99.90
75262;DHT22;63859;51.064;4.580;2024-02-28T16:13:41;10.10;99.90
75262;DHT22;63859;51.064;4.580;2024-02-28T16:16:08;10.00;99.90
75262;DHT22;63859;51.064;4.580;2024-02-28T16:18:34;10.00;99.90
75262;DHT22;63859;51.064;4.580;2024-02-28T16:21:00;10.00;99.90
75262;DHT22;63859;51.064;4.580;2024-02-28T16:25:52;9.90;99.90
75262;DHT22;63859;51.064;4.580;2024-02-28T16:28:26;9.90;99.90
75262;DHT22;63859;51.064;4.580;2024-02-28T16:30:52;9.90;99.90
75262;DHT22;63859;51.064;4.580;2024-02-28T16:35:46;9.80;99.90
75262;DHT22;63859;51.064;4.580;2024-02-28T16:38:12;9.70;99.90